Time;durP1;ratioP1;P1;durP2;ratioP2;P2;SDS_P1;SDS_P2;PMS_P1;PMS_P2;Temp;Humidity;BMP_temperature;BMP_pressure;BME280_temperature;BME280_humidity;BME280_pressure;Samples;Min_cycle;Max_cycle;Signal;HPM_P1;HPM_P2
2023/11/23 00:00:25;;;;;;;;;66.67;51.67;;;;;2.29;98.92;100415.13;6307189;20;2875958;-48
2023/11/23 00:02:54;;;;;;;;;63.50;49.50;;;;;2.32;98.48;100422.13;6305848;20;2861807;-52
2023/11/23 00:05:24;;;;;;;;;73.67;51.00;;;;;2.28;98.39;100437.19;6277308;20;2877429;-46
2023/11/23 00:07:52;;;;;;;;;60.00;48.00;;;;;1.98;98.73;100439.41;6306302;20;2487791;-47
2023/11/23 00:10:21;;;;;;;;;53.00;47.00;;;;;2.01;99.00;100434.97;6276991;20;2855456;-50
2023/11/23 00:12:49;;;;;;;;;60.00;50.00;;;;;1.93;98.94;100432.44;6275671;20;2495098;-49
2023/11/23 00:15:19;;;;;;;;;69.33;48.00;;;;;1.81;100.00;100435.25;6278511;20;2884849;-50
2023/11/23 00:17:48;;;;;;;;;62.00;47.00;;;;;2.05;99.72;100436.66;6315149;20;2859655;-47
2023/11/23 00:20:16;;;;;;;;;68.50;51.50;;;;;2.04;99.16;100437.56;6279118;20;2487764;-48
2023/11/23 00:22:46;;;;;;;;;66.33;51.67;;;;;1.94;98.68;100437.69;6281442;20;2877643;-49
2023/11/23 00:25:16;;;;;;;;;63.67;48.33;;;;;1.86;98.88;100438.69;6314563;20;2873246;-52
2023/11/23 00:27:45;;;;;;;;;64.00;48.50;;;;;1.61;99.91;100438.16;6314212;20;2873256;-51
2023/11/23 00:30:14;;;;;;;;;63.50;52.00;;;;;1.56;100.00;100440.00;6283204;20;2863856;-47
2023/11/23 00:32:44;;;;;;;;;71.00;51.33;;;;;1.61;100.00;100432.88;6283087;20;2880485;-52
2023/11/23 00:35:13;;;;;;;;;70.00;47.67;;;;;1.61;100.00;100428.44;6314127;20;2884794;-52
2023/11/23 00:37:44;;;;;;;;;60.00;45.00;;;;;1.28;100.00;100427.09;6312752;20;2861818;-51
2023/11/23 00:40:13;;;;;;;;;54.00;44.50;;;;;1.56;100.00;100413.53;6280453;20;2495101;-51
2023/11/23 00:42:41;;;;;;;;;63.50;48.00;;;;;1.44;100.00;100420.72;6280776;20;2867958;-50
2023/11/23 00:45:14;;;;;;;;;68.00;48.67;;;;;1.20;100.00;100421.00;6280388;20;3636941;-51
2023/11/23 00:47:43;;;;;;;;;61.50;46.50;;;;;1.25;100.00;100419.19;6314839;20;2852359;-48
2023/11/23 00:50:12;;;;;;;;;64.50;48.00;;;;;1.43;100.00;100418.97;6283705;20;2863781;-44
2023/11/23 00:52:42;;;;;;;;;68.00;49.00;;;;;1.09;100.00;100415.84;6280031;20;2878545;-43
2023/11/23 00:55:11;;;;;;;;;64.00;48.00;;;;;1.20;100.00;100410.44;6313966;20;2862769;-45
2023/11/23 00:57:40;;;;;;;;;54.33;42.00;;;;;1.09;100.00;100403.50;6283006;20;2864891;-40
2023/11/23 01:00:11;;;;;;;;;53.00;43.50;;;;;1.05;100.00;100406.19;6314113;20;2873223;-39
2023/11/23 01:02:40;;;;;;;;;65.00;49.00;;;;;1.06;100.00;100408.81;6281096;20;2895065;-40
2023/11/23 01:05:15;;;;;;;;;72.33;49.00;;;;;0.75;100.00;100417.97;6280778;20;3631502;-40
2023/11/23 01:07:45;;;;;;;;;59.67;44.00;;;;;0.98;100.00;100415.97;6312629;20;2869177;-39
2023/11/23 01:10:14;;;;;;;;;48.50;39.00;;;;;1.01;100.00;100408.00;6313257;20;2876342;-40
2023/11/23 01:12:43;;;;;;;;;63.00;49.00;;;;;1.24;100.00;100404.22;6281337;20;2855503;-40
2023/11/23 01:15:12;;;;;;;;;64.50;50.50;;;;;1.67;99.77;100401.03;6283022;20;2863820;-40
2023/11/23 01:17:42;;;;;;;;;59.00;45.00;;;;;1.30;100.00;100402.38;6282209;20;2872247;-39
2023/11/23 01:20:11;;;;;;;;;63.00;49.00;;;;;1.20;100.00;100402.50;6313737;20;2864854;-40
2023/11/23 01:22:40;;;;;;;;;59.50;48.50;;;;;1.03;100.00;100400.94;6279029;20;2847632;-40
2023/11/23 01:25:09;;;;;;;;;54.50;40.00;;;;;1.17;100.00;100413.13;6284608;20;2876377;-48
2023/11/23 01:27:38;;;;;;;;;70.50;49.00;;;;;0.90;100.00;100416.94;6280309;20;2881517;-48
2023/11/23 01:30:09;;;;;;;;;65.00;47.00;;;;;0.98;100.00;100425.69;6281074;20;2866076;-48
2023/11/23 01:32:37;;;;;;;;;69.00;50.50;;;;;1.05;100.00;100422.06;6313330;20;2877752;-48
2023/11/23 01:35:08;;;;;;;;;73.33;53.33;;;;;0.92;100.00;100421.31;6279298;20;2896205;-47
2023/11/23 01:37:37;;;;;;;;;52.00;44.50;;;;;0.99;100.00;100425.63;6314239;20;2840013;-47
2023/11/23 01:40:08;;;;;;;;;57.00;44.50;;;;;0.76;100.00;100425.88;6282553;20;2850536;-48
2023/11/23 01:42:38;;;;;;;;;70.67;50.67;;;;;0.85;100.00;100424.91;6278818;20;2884830;-48
2023/11/23 01:45:08;;;;;;;;;62.33;45.33;;;;;0.85;100.00;100419.63;6309421;20;2883771;-48
2023/11/23 01:47:42;;;;;;;;;69.50;52.00;;;;;0.75;100.00;100420.63;6312587;20;2878418;-48
2023/11/23 01:50:15;;;;;;;;;60.00;45.50;;;;;0.69;100.00;100416.28;6279169;20;2852364;-47
2023/11/23 01:52:44;;;;;;;;;67.50;48.00;;;;;0.65;100.00;100411.88;6275021;20;2859671;-48
2023/11/23 01:55:13;;;;;;;;;64.00;46.50;;;;;0.48;100.00;100406.78;6282662;20;2863913;-48
2023/11/23 01:57:42;;;;;;;;;65.50;49.00;;;;;0.82;100.00;100414.38;6276705;20;2492952;-48
2023/11/23 02:00:13;;;;;;;;;51.67;45.00;;;;;0.74;100.00;100406.53;6276966;20;2879595;-48
2023/11/23 02:02:43;;;;;;;;;66.00;49.00;;;;;0.27;100.00;100399.03;6308490;20;2857539;-48
2023/11/23 02:05:12;;;;;;;;;60.00;49.00;;;;;0.53;100.00;100402.31;6277838;20;2508591;-49
2023/11/23 02:07:41;;;;;;;;;70.50;49.50;;;;;0.79;100.00;100395.88;6276923;20;2885786;-48
2023/11/23 02:10:10;;;;;;;;;43.50;36.00;;;;;0.91;100.00;100387.84;6281410;20;2866963;-48
2023/11/23 02:12:39;;;;;;;;;64.00;48.00;;;;;0.72;100.00;100392.44;6280028;20;2852409;-49
2023/11/23 02:15:10;;;;;;;;;63.00;50.00;;;;;0.83;100.00;100392.34;6281077;20;2853474;-39
2023/11/23 02:17:41;;;;;;;;;64.00;48.33;;;;;0.60;100.00;100393.44;6278655;20;2873301;-39
2023/11/23 02:20:11;;;;;;;;;53.50;45.50;;;;;0.65;100.00;100380.19;6312061;20;2846141;-41
2023/11/23 02:22:40;;;;;;;;;62.33;44.33;;;;;0.67;100.00;100380.19;6279868;20;2863850;-40
2023/11/23 02:25:10;;;;;;;;;68.33;48.33;;;;;0.81;100.00;100386.19;6311110;20;2864856;-40
2023/11/23 02:27:39;;;;;;;;;68.00;53.00;;;;;0.55;100.00;100384.66;6312550;20;2870158;-39
2023/11/23 02:30:09;;;;;;;;;64.00;50.00;;;;;0.81;100.00;100384.41;6308760;20;2496208;-39
2023/11/23 02:32:38;;;;;;;;;69.00;49.00;;;;;0.93;100.00;100377.25;6276844;20;3627397;-41
2023/11/23 02:35:08;;;;;;;;;51.67;42.67;;;;;0.84;100.00;100370.28;6308082;20;2866048;-39
2023/11/23 02:37:36;;;;;;;;;60.00;46.00;;;;;0.68;100.00;100366.06;6310723;20;2497184;-38
2023/11/23 02:40:07;;;;;;;;;64.00;48.00;;;;;0.59;100.00;100365.25;6278696;20;2866115;-42
2023/11/23 02:42:39;;;;;;;;;68.33;50.67;;;;;0.74;100.00;100356.31;6279352;20;2872196;-39
2023/11/23 02:45:14;;;;;;;;;68.67;43.33;;;;;0.58;100.00;100360.88;6310932;20;3630471;-39
2023/11/23 02:47:43;;;;;;;;;68.67;46.33;;;;;0.70;100.00;100364.28;6311526;20;2876414;-40
2023/11/23 02:50:11;;;;;;;;;51.00;46.00;;;;;0.93;100.00;100364.91;6309324;20;2498490;-39
2023/11/23 02:52:40;;;;;;;;;60.50;46.00;;;;;0.70;100.00;100361.63;6278656;20;2854439;-39
2023/11/23 02:55:11;;;;;;;;;66.33;50.00;;;;;0.60;100.00;100367.00;6280383;20;2874378;-39
2023/11/23 02:57:42;;;;;;;;;67.67;49.67;;;;;0.20;100.00;100377.06;6312836;20;2881533;-39
2023/11/23 03:00:12;;;;;;;;;57.67;39.00;;;;;0.13;100.00;100367.44;6310655;20;2879490;-39
2023/11/23 03:02:41;;;;;;;;;63.50;49.50;;;;;0.68;100.00;100363.41;6307824;20;2860718;-40
2023/11/23 03:05:13;;;;;;;;;64.00;51.00;;;;;0.30;100.00;100354.97;6277301;20;2495245;-40
2023/11/23 03:07:42;;;;;;;;;61.50;50.00;;;;;0.53;100.00;100349.47;6279604;20;2854453;-39
2023/11/23 03:10:11;;;;;;;;;63.50;45.50;;;;;0.07;100.00;100352.53;6277687;20;2873197;-40
2023/11/23 03:12:40;;;;;;;;;63.00;46.50;;;;;0.21;100.00;100348.03;6274034;20;2869016;-39
2023/11/23 03:15:10;;;;;;;;;40.00;36.50;;;;;0.43;100.00;100347.81;6272932;20;2863968;-39
2023/11/23 03:17:39;;;;;;;;;56.00;47.00;;;;;0.43;100.00;100334.63;6276111;20;2849270;-39
2023/11/23 03:20:10;;;;;;;;;53.50;42.50;;;;;0.21;100.00;100337.47;6272196;20;2500458;-39
2023/11/23 03:22:39;;;;;;;;;58.00;45.00;;;;;0.24;100.00;100328.63;6271819;20;2863843;-39
2023/11/23 03:25:09;;;;;;;;;68.50;49.00;;;;;0.32;100.00;100320.66;6276192;20;2874314;-39
2023/11/23 03:27:38;;;;;;;;;54.00;40.50;;;;;0.34;100.00;100316.19;6277916;20;2870106;-39
2023/11/23 03:30:07;;;;;;;;;53.00;43.50;;;;;0.46;100.00;100334.56;6276021;20;2873199;-39
2023/11/23 03:32:37;;;;;;;;;51.67;37.67;;;;;0.63;100.00;100332.66;6277048;20;3610682;-48
2023/11/23 03:35:06;;;;;;;;;56.00;42.33;;;;;0.68;100.00;100335.22;6309032;20;2869124;-49
2023/11/23 03:37:36;;;;;;;;;46.00;40.00;;;;;0.43;100.00;100332.84;6310674;20;2868008;-48
2023/11/23 03:40:10;;;;;;;;;50.33;38.00;;;;;0.18;100.00;100332.19;6277115;20;2873289;-48
2023/11/23 03:42:38;;;;;;;;;12.00;3.67;;;;;0.35;100.00;100331.16;6307976;20;3479508;-48
2023/11/23 03:45:07;;;;;;;;;59.50;47.00;;;;;0.50;100.00;100335.41;6309792;20;2851357;-48
2023/11/23 03:47:36;;;;;;;;;68.50;50.00;;;;;0.19;100.00;100338.38;6275215;20;2867983;-48
2023/11/23 03:50:06;;;;;;;;;48.33;33.33;;;;;0.49;100.00;100331.91;6274804;20;3619054;-48
2023/11/23 03:52:35;;;;;;;;;61.50;46.50;;;;;0.56;100.00;100340.66;6307157;20;2875458;-48
2023/11/23 03:55:06;;;;;;;;;55.67;42.67;;;;;0.72;100.00;100336.09;6275541;20;2872256;-48
2023/11/23 03:57:38;;;;;;;;;54.00;45.00;;;;;0.43;100.00;100327.56;6310368;20;2855494;-48
2023/11/23 04:00:08;;;;;;;;;52.00;42.33;;;;;0.50;100.00;100338.06;6278218;20;2867094;-48
2023/11/23 04:02:37;;;;;;;;;64.00;45.00;;;;;0.28;100.00;100324.19;6308045;20;2871212;-49
2023/11/23 04:05:06;;;;;;;;;43.00;33.50;;;;;0.08;100.00;100325.25;6278588;20;2854987;-48
2023/11/23 04:07:36;;;;;;;;;68.33;47.67;;;;;0.25;100.00;100326.88;6279304;20;2881644;-48
2023/11/23 04:10:07;;;;;;;;;56.00;45.00;;;;;0.00;100.00;100321.81;6306346;20;2866090;-48
2023/11/23 04:12:36;;;;;;;;;41.33;31.00;;;;;0.37;100.00;100318.81;6308041;20;2860715;-48
2023/11/23 04:15:07;;;;;;;;;61.50;47.50;;;;;0.10;100.00;100319.94;6307656;20;2846270;-47
2023/11/23 04:17:36;;;;;;;;;46.00;34.00;;;;;0.21;100.00;100324.25;6276165;20;2866962;-48
2023/11/23 04:20:07;;;;;;;;;63.50;46.50;;;;;0.58;100.00;100328.28;6276494;20;2870073;-48
2023/11/23 04:22:36;;;;;;;;;54.50;46.00;;;;;0.27;100.00;100319.81;6274904;20;2863801;-47
2023/11/23 04:25:06;;;;;;;;;54.50;44.50;;;;;0.41;100.00;100317.91;6275583;20;2869044;-47
2023/11/23 04:27:35;;;;;;;;;45.00;34.00;;;;;0.24;100.00;100319.81;6276800;20;2873198;-48
2023/11/23 04:30:04;;;;;;;;;62.00;47.00;;;;;0.34;100.00;100321.47;6275230;20;2863837;-48
2023/11/23 04:32:33;;;;;;;;;53.00;43.00;;;;;0.40;100.00;100324.09;6275556;20;2875312;-48
2023/11/23 04:35:03;;;;;;;;;50.67;41.33;;;;;0.22;100.00;100320.72;6276538;20;3586792;-48
2023/11/23 04:37:30;;;;;;;;;65.00;47.00;;;;;0.38;100.00;100317.94;6274053;20;2502427;-48
2023/11/23 04:39:59;;;;;;;;;49.50;41.00;;;;;0.42;100.00;100324.91;6278696;20;2879543;-47
2023/11/23 04:42:29;;;;;;;;;56.67;42.67;;;;;0.31;100.00;100305.66;6271937;20;2874396;-48
2023/11/23 04:44:57;;;;;;;;;39.50;28.00;;;;;0.72;100.00;100307.00;6308424;20;2848167;-48
2023/11/23 04:47:26;;;;;;;;;70.33;44.67;;;;;0.52;100.00;100302.81;6276653;20;3643100;-48
2023/11/23 04:49:56;;;;;;;;;55.50;42.00;;;;;0.76;100.00;100304.28;6307862;20;2870086;-48
2023/11/23 04:52:24;;;;;;;;;61.00;46.00;;;;;0.72;100.00;100296.44;6277204;20;2868004;-48
2023/11/23 04:54:54;;;;;;;;;65.33;46.67;;;;;0.48;100.00;100298.47;6276918;20;2870090;-40
2023/11/23 04:57:23;;;;;;;;;59.50;44.50;;;;;0.72;100.00;100304.38;6308772;20;2871186;-39
2023/11/23 04:59:52;;;;;;;;;59.50;47.00;;;;;0.75;100.00;100301.69;6277666;20;2852375;-39
2023/11/23 05:02:21;;;;;;;;;66.00;48.00;;;;;0.78;100.00;100301.63;6282180;20;2854450;-41
2023/11/23 05:04:50;;;;;;;;;63.00;49.50;;;;;0.76;99.50;100303.41;6281857;20;2854504;-39
2023/11/23 05:07:19;;;;;;;;;51.00;39.50;;;;;1.02;99.05;100295.16;6284334;20;2878458;-39
2023/11/23 05:09:48;;;;;;;;;53.00;37.00;;;;;0.95;98.62;100307.63;6282697;20;2881635;-39
2023/11/23 05:12:17;;;;;;;;;43.00;42.00;;;;;0.91;99.34;100321.75;6311566;20;2862784;-39
2023/11/23 05:14:47;;;;;;;;;61.00;41.33;;;;;0.84;99.41;100320.06;6282231;20;3632594;-39
2023/11/23 05:17:17;;;;;;;;;49.33;36.00;;;;;0.85;99.99;100329.75;6313416;20;3625250;-40
2023/11/23 05:19:45;;;;;;;;;48.00;41.00;;;;;0.94;99.85;100331.41;6314362;20;2862839;-40
2023/11/23 05:22:14;;;;;;;;;57.50;44.00;;;;;0.72;99.42;100325.50;6281711;20;2868017;-38
2023/11/23 05:24:43;;;;;;;;;50.50;42.00;;;;;0.83;99.32;100336.81;6282417;20;2852361;-38
2023/11/23 05:27:12;;;;;;;;;69.00;51.50;;;;;0.71;99.47;100342.25;6280464;20;2870213;-40
2023/11/23 05:29:42;;;;;;;;;49.00;37.67;;;;;0.78;100.00;100339.50;6282336;20;2879502;-40
2023/11/23 05:32:11;;;;;;;;;43.00;37.00;;;;;0.59;99.70;100340.63;6309763;20;2863859;-39
2023/11/23 05:34:41;;;;;;;;;60.67;43.67;;;;;0.59;100.00;100343.25;6279858;20;3633696;-48
2023/11/23 05:37:10;;;;;;;;;58.67;42.33;;;;;0.55;100.00;100337.09;6311609;20;3628406;-48
2023/11/23 05:39:39;;;;;;;;;65.00;47.50;;;;;0.39;100.00;100332.88;6313032;20;2859696;-49
2023/11/23 05:42:12;;;;;;;;;41.00;30.50;;;;;0.54;100.00;100329.22;6281810;20;2868015;-48
2023/11/23 05:44:40;;;;;;;;;62.50;45.00;;;;;0.63;100.00;100335.28;6281796;20;2871145;-47
2023/11/23 05:47:10;;;;;;;;;48.67;33.67;;;;;0.65;100.00;100322.91;6278775;20;2864278;-48
2023/11/23 05:49:39;;;;;;;;;57.00;42.50;;;;;0.38;100.00;100312.66;6312724;20;2878474;-48
2023/11/23 05:52:10;;;;;;;;;58.67;44.00;;;;;0.39;100.00;100317.03;6277173;20;2877383;-48
2023/11/23 05:54:39;;;;;;;;;56.00;44.50;;;;;0.68;100.00;100323.78;6313695;20;2855541;-48
2023/11/23 05:57:08;;;;;;;;;53.00;41.00;;;;;0.64;100.00;100326.47;6278449;20;2874382;-39
2023/11/23 05:59:37;;;;;;;;;50.00;38.00;;;;;0.67;100.00;100336.13;6278493;20;2874406;-38
2023/11/23 06:02:07;;;;;;;;;49.00;41.50;;;;;0.54;100.00;100331.84;6276380;20;2500261;-39
2023/11/23 06:04:36;;;;;;;;;47.50;36.00;;;;;0.46;100.00;100324.00;6279473;20;2863928;-40
2023/11/23 06:07:10;;;;;;;;;53.50;38.50;;;;;0.51;100.00;100323.97;6281256;20;2875397;-39
2023/11/23 06:09:43;;;;;;;;;56.33;44.33;;;;;0.42;100.00;100324.91;6279866;20;2876400;-39
2023/11/23 06:12:11;;;;;;;;;43.00;37.00;;;;;0.35;100.00;100320.59;6309467;20;2855480;-48
2023/11/23 06:14:40;;;;;;;;;64.00;44.00;;;;;0.50;100.00;100324.84;6281093;20;2880642;-48
2023/11/23 06:17:10;;;;;;;;;55.00;45.00;;;;;0.43;100.00;100322.28;6278639;20;2500352;-48
2023/11/23 06:19:39;;;;;;;;;52.00;35.50;;;;;0.40;100.00;100322.31;6281836;20;2870199;-48
2023/11/23 06:22:08;;;;;;;;;46.00;39.00;;;;;0.47;100.00;100323.09;6278558;20;2500262;-48
2023/11/23 06:24:37;;;;;;;;;53.00;36.33;;;;;0.49;100.00;100316.03;6279179;20;2879614;-40
2023/11/23 06:27:06;;;;;;;;;65.00;51.50;;;;;0.29;100.00;100310.97;6313806;20;2855484;-40
2023/11/23 06:29:35;;;;;;;;;64.00;49.50;;;;;0.29;100.00;100318.91;6281941;20;2866926;-39
2023/11/23 06:32:04;;;;;;;;;61.50;46.00;;;;;0.54;100.00;100314.22;6277457;20;2857669;-38
2023/11/23 06:34:34;;;;;;;;;60.50;44.50;;;;;0.59;100.00;100323.00;6281793;20;2859801;-39
2023/11/23 06:37:06;;;;;;;;;49.00;40.00;;;;;0.48;100.00;100322.22;6277455;20;2508711;-48
2023/11/23 06:39:38;;;;;;;;;59.50;47.00;;;;;0.08;100.00;100321.72;6282123;20;2864851;-44
2023/11/23 06:42:06;;;;;;;;;64.00;45.00;;;;;0.70;100.00;100335.22;6274884;20;2496246;-45
2023/11/23 06:44:35;;;;;;;;;67.00;50.00;;;;;0.82;100.00;100335.09;6281762;20;2875298;-44
2023/11/23 06:47:05;;;;;;;;;58.00;44.67;;;;;1.02;100.00;100337.47;6279291;20;2873328;-44
2023/11/23 06:49:35;;;;;;;;;61.67;44.67;;;;;1.13;99.40;100329.41;6312218;20;2866955;-46
2023/11/23 06:52:04;;;;;;;;;60.67;41.67;;;;;1.20;98.08;100329.31;6309117;20;2885807;-46
2023/11/23 06:54:36;;;;;;;;;54.33;39.00;;;;;1.39;97.79;100318.47;6312064;20;2889039;-44
2023/11/23 06:57:04;;;;;;;;;57.00;45.50;;;;;1.58;96.77;100316.44;6307648;20;2500288;-46
2023/11/23 06:59:35;;;;;;;;;53.50;40.00;;;;;1.87;96.12;100313.34;6281193;20;2870093;-44
2023/11/23 07:02:05;;;;;;;;;58.00;43.50;;;;;2.00;95.47;100308.72;6278811;20;2865982;-44
2023/11/23 07:04:34;;;;;;;;;49.00;37.00;;;;;2.35;92.88;100294.91;6280819;20;2878399;-45
2023/11/23 07:07:06;;;;;;;;;47.50;41.00;;;;;1.98;94.38;100299.06;6311224;20;2851324;-40
2023/11/23 07:09:36;;;;;;;;;60.50;47.50;;;;;1.75;94.80;100298.53;6275866;20;2854575;-50
2023/11/23 07:12:04;;;;;;;;;55.00;41.00;;;;;1.93;94.58;100298.25;6275057;20;2473750;-46
2023/11/23 07:14:32;;;;;;;;;54.00;43.00;;;;;1.79;94.84;100294.06;6272934;20;2500287;-47
2023/11/23 07:17:01;;;;;;;;;48.50;42.00;;;;;2.06;94.98;100298.06;6280201;20;2864872;-46
2023/11/23 07:19:30;;;;;;;;;51.00;41.00;;;;;1.90;95.01;100300.09;6278945;20;2871145;-45
2023/11/23 07:21:59;;;;;;;;;53.00;43.00;;;;;1.87;94.65;100298.38;6278717;20;2860744;-45
2023/11/23 07:24:27;;;;;;;;;45.00;42.00;;;;;1.88;95.35;100308.03;6273355;20;2500329;-44
2023/11/23 07:26:56;;;;;;;;;57.50;43.00;;;;;2.05;95.52;100307.75;6270361;20;2874727;-45
2023/11/23 07:29:25;;;;;;;;;32.33;25.67;;;;;1.95;95.46;100311.47;6267964;20;3539878;-44
2023/11/23 07:31:54;;;;;;;;;39.00;36.50;;;;;1.87;96.25;100308.06;6300781;20;2852503;-46
2023/11/23 07:34:25;;;;;;;;;63.33;42.33;;;;;2.10;95.59;100310.34;6269862;20;2886768;-44
2023/11/23 07:36:55;;;;;;;;;59.67;43.33;;;;;2.10;94.89;100310.34;6301068;20;3613787;-44
2023/11/23 07:39:23;;;;;;;;;57.50;43.50;;;;;2.13;94.97;100297.94;6301132;20;2870270;-44
2023/11/23 07:41:53;;;;;;;;;45.33;39.00;;;;;2.21;94.03;100297.75;6268640;20;2857673;-45
2023/11/23 07:44:23;;;;;;;;;56.00;44.00;;;;;2.30;94.41;100297.63;6297673;20;2868179;-43
2023/11/23 07:46:53;;;;;;;;;61.00;43.67;;;;;2.02;93.61;100296.34;6300085;20;2878444;-44
2023/11/23 07:49:22;;;;;;;;;55.50;41.00;;;;;2.16;93.91;100300.53;6300053;20;2863855;-46
2023/11/23 07:51:55;;;;;;;;;62.00;45.00;;;;;2.37;93.04;100301.91;6267029;20;2871268;-44
2023/11/23 07:54:24;;;;;;;;;54.50;43.00;;;;;2.25;93.71;100290.66;6268510;20;2858648;-46
2023/11/23 07:56:53;;;;;;;;;55.50;43.00;;;;;2.35;93.32;100287.81;6268286;20;2873395;-44
2023/11/23 07:59:23;;;;;;;;;50.33;43.00;;;;;2.25;93.18;100294.19;6269284;20;2868054;-45
2023/11/23 08:01:54;;;;;;;;;48.00;39.33;;;;;2.59;93.50;100296.22;6301679;20;2867148;-45
2023/11/23 08:04:24;;;;;;;;;58.33;41.00;;;;;2.37;93.75;100299.25;6301167;20;3635683;-46
2023/11/23 08:06:54;;;;;;;;;53.67;41.33;;;;;2.67;93.73;100290.75;6298333;20;2869054;-46
2023/11/23 08:09:23;;;;;;;;;56.50;43.50;;;;;2.71;93.86;100288.00;6302817;20;2851313;-47
2023/11/23 08:11:55;;;;;;;;;50.50;40.00;;;;;2.61;92.72;100287.31;6268878;20;2850343;-46
2023/11/23 08:14:25;;;;;;;;;55.50;42.00;;;;;2.66;93.98;100271.34;6270807;20;2870097;-45
2023/11/23 08:16:54;;;;;;;;;62.67;45.00;;;;;2.45;93.91;100264.69;6270512;20;2863864;-44
2023/11/23 08:19:25;;;;;;;;;54.00;40.00;;;;;2.58;94.05;100265.28;6300033;20;2749372;-44
2023/11/23 08:21:53;;;;;;;;;61.50;43.00;;;;;2.84;92.61;100267.41;6295151;20;2491966;-45
2023/11/23 08:24:21;;;;;;;;;54.50;43.00;;;;;2.75;92.64;100255.22;6265810;20;2497599;-46
2023/11/23 08:26:52;;;;;;;;;60.00;44.00;;;;;2.77;93.15;100255.22;6270416;20;2856601;-46
2023/11/23 08:29:21;;;;;;;;;58.50;44.00;;;;;2.60;93.38;100259.03;6270838;20;2852517;-46
2023/11/23 08:31:51;;;;;;;;;54.67;39.67;;;;;2.75;92.88;100260.53;6271147;20;2877543;-45
2023/11/23 08:34:20;;;;;;;;;51.50;43.50;;;;;2.86;92.27;100258.53;6302424;20;2858665;-45
2023/11/23 08:36:49;;;;;;;;;53.50;43.00;;;;;2.79;92.76;100267.53;6271823;20;2847142;-44
2023/11/23 08:39:42;;;;;;;;;60.00;49.50;;;;;3.44;92.10;100271.41;6277344;20;2857677;-46
2023/11/23 08:42:10;;;;;;;;;51.50;42.00;;;;;3.17;91.32;100265.84;6274395;20;2850307;-45
2023/11/23 08:44:40;;;;;;;;;59.50;44.00;;;;;3.39;91.38;100266.22;6275744;20;2865017;-45
2023/11/23 08:47:09;;;;;;;;;62.00;45.00;;;;;3.34;90.82;100273.41;6274382;20;2857568;-44
2023/11/23 08:49:38;;;;;;;;;67.00;49.00;;;;;2.99;91.59;100260.94;6272932;20;2868049;-44
2023/11/23 08:52:08;;;;;;;;;67.33;51.00;;;;;3.41;91.47;100255.56;6265931;20;2872321;-45
2023/11/23 08:54:36;;;;;;;;;61.50;46.00;;;;;3.39;91.35;100255.59;6303643;20;2487805;-47
2023/11/23 08:57:05;;;;;;;;;57.00;45.50;;;;;3.21;91.17;100256.91;6277485;20;2861818;-44
2023/11/23 08:59:37;;;;;;;;;72.67;58.00;;;;;3.25;91.72;100250.63;6275378;20;2878500;-45
2023/11/23 09:02:07;;;;;;;;;64.67;49.00;;;;;3.34;91.40;100249.53;6307929;20;2885945;-46
2023/11/23 09:04:49;;;;;;;;;66.00;49.67;;;;;3.83;89.54;100258.13;6310885;20;2866933;-46
2023/11/23 09:07:20;;;;;;;;;70.67;52.00;;;;;4.17;88.13;100253.69;6307246;20;3636711;-45
2023/11/23 09:09:50;;;;;;;;;69.67;51.00;;;;;4.17;88.81;100245.72;6309319;20;3640901;-45
2023/11/23 09:12:19;;;;;;;;;73.33;54.67;;;;;4.72;85.88;100253.97;6304427;20;3654404;-45
2023/11/23 09:14:49;;;;;;;;;56.50;43.50;;;;;4.11;86.13;100253.84;6307430;20;2858615;-45
2023/11/23 09:17:19;;;;;;;;;56.00;44.00;;;;;4.22;87.22;100253.56;6277582;20;2849238;-45
2023/11/23 09:19:48;;;;;;;;;56.50;44.00;;;;;4.71;85.74;100269.94;6278031;20;2864909;-49
2023/11/23 09:22:17;;;;;;;;;56.50;44.50;;;;;4.55;84.73;100262.41;6277009;20;2857598;-46
2023/11/23 09:24:46;;;;;;;;;66.67;49.00;;;;;4.48;85.19;100266.16;6277622;20;3625253;-48
2023/11/23 09:27:16;;;;;;;;;58.00;44.67;;;;;4.57;84.57;100255.25;6308672;20;2862824;-48
2023/11/23 09:29:45;;;;;;;;;56.50;44.50;;;;;5.05;82.63;100257.44;6307861;20;2851753;-44
2023/11/23 09:32:14;;;;;;;;;62.67;47.00;;;;;5.14;83.69;100256.28;6275800;20;2880508;-45
2023/11/23 09:34:44;;;;;;;;;50.50;42.00;;;;;4.58;84.23;100246.38;6309428;20;2846134;-45
2023/11/23 09:37:13;;;;;;;;;57.50;44.00;;;;;4.84;83.76;100250.06;6275150;20;2877531;-45
2023/11/23 09:39:44;;;;;;;;;58.50;43.00;;;;;5.34;82.55;100239.69;6277413;20;2859797;-47
2023/11/23 09:42:16;;;;;;;;;56.00;45.50;;;;;5.22;83.74;100230.31;6275236;20;2861803;-46
2023/11/23 09:44:48;;;;;;;;;60.50;48.00;;;;;5.36;84.61;100224.53;6276047;20;2863852;-46
2023/11/23 09:47:19;;;;;;;;;57.50;43.00;;;;;5.28;83.93;100221.25;6273236;20;2861907;-46
2023/11/23 09:49:48;;;;;;;;;56.50;46.50;;;;;4.96;84.95;100214.25;6272718;20;2863800;-46
2023/11/23 09:52:16;;;;;;;;;56.00;44.50;;;;;4.97;84.42;100216.84;6273136;20;2489961;-45
2023/11/23 09:54:46;;;;;;;;;44.50;39.00;;;;;4.98;83.89;100215.09;6274727;20;2861784;-44
2023/11/23 09:57:16;;;;;;;;;61.00;43.33;;;;;5.20;84.02;100207.31;6272876;20;2873559;-43
2023/11/23 09:59:44;;;;;;;;;48.00;40.00;;;;;5.16;84.05;100205.66;6303841;20;2493011;-44
2023/11/23 10:02:13;;;;;;;;;56.50;42.00;;;;;5.11;84.77;100200.50;6275924;20;2856626;-44
2023/11/23 10:04:42;;;;;;;;;49.00;39.00;;;;;5.02;83.48;100204.28;6273659;20;2855515;-48
2023/11/23 10:07:16;;;;;;;;;61.33;42.00;;;;;4.91;84.95;100206.41;6275644;20;2874434;-43
2023/11/23 10:09:48;;;;;;;;;56.50;44.50;;;;;4.44;86.21;100194.50;6304987;20;2866940;-44
2023/11/23 10:12:19;;;;;;;;;60.50;47.00;;;;;4.23;87.94;100191.50;6274674;20;2858674;-43
2023/11/23 10:14:48;;;;;;;;;50.50;41.00;;;;;4.39;87.16;100183.97;6274625;20;2869057;-43
2023/11/23 10:17:17;;;;;;;;;58.00;41.00;;;;;4.32;87.80;100182.44;6274180;20;2871188;-42
2023/11/23 10:19:47;;;;;;;;;61.50;45.50;;;;;4.70;87.17;100185.75;6305473;20;2879431;-45
2023/11/23 10:22:16;;;;;;;;;62.00;49.00;;;;;4.87;86.80;100183.50;6272876;20;2861765;-44
2023/11/23 10:24:49;;;;;;;;;59.67;45.00;;;;;5.56;84.52;100181.28;6270444;20;2876470;-43
2023/11/23 10:27:20;;;;;;;;;61.33;47.67;;;;;5.41;84.11;100177.34;6301876;20;3623195;-43
2023/11/23 10:29:50;;;;;;;;;61.33;47.67;;;;;5.48;84.62;100164.69;6302684;20;2874299;-44
2023/11/23 10:32:20;;;;;;;;;59.00;45.50;;;;;5.68;83.55;100164.03;6303902;20;2861841;-43
2023/11/23 10:34:50;;;;;;;;;61.67;49.00;;;;;4.98;85.26;100154.75;6269107;20;2862996;-44
2023/11/23 10:37:23;;;;;;;;;48.00;42.00;;;;;4.76;85.43;100153.66;6301695;20;2847158;-43
2023/11/23 10:39:56;;;;;;;;;64.67;50.67;;;;;4.65;86.85;100145.13;6272873;20;2882684;-42
2023/11/23 10:42:26;;;;;;;;;61.00;47.67;;;;;4.39;88.39;100138.78;6303589;20;2860852;-43
2023/11/23 10:44:56;;;;;;;;;63.00;46.00;;;;;4.22;89.48;100135.75;6303742;20;2891026;-44
2023/11/23 10:47:29;;;;;;;;;71.00;52.67;;;;;4.51;89.26;100132.25;6303865;20;2871277;-43
2023/11/23 10:50:00;;;;;;;;;61.00;50.00;;;;;4.59;89.73;100131.09;6305996;20;2870076;-44
2023/11/23 10:52:31;;;;;;;;;57.00;44.50;;;;;4.66;88.68;100120.28;6269931;20;2852377;-44
2023/11/23 10:55:01;;;;;;;;;64.00;45.67;;;;;5.12;88.43;100108.19;6267639;20;3624224;-46
2023/11/23 10:57:31;;;;;;;;;58.67;44.67;;;;;5.16;86.93;100104.50;6305170;20;2864878;-44
2023/11/23 11:00:07;;;;;;;;;57.00;43.00;;;;;5.15;86.89;100102.78;6303172;20;2856549;-43
2023/11/23 11:02:38;;;;;;;;;57.67;43.00;;;;;5.46;87.35;100103.50;6301602;20;2869095;-47
2023/11/23 11:05:29;;;;;;;;;51.50;42.50;;;;;5.50;86.94;100082.94;6302897;20;2857593;-44
2023/11/23 11:08:05;;;;;;;;;52.50;39.00;;;;;5.41;86.36;100084.13;6274316;20;2853429;-44